createdAt,value
2023-01-27T00:00:35.827Z,8.00
2023-01-27T00:03:02.576Z,5.55
2023-01-27T00:05:29.287Z,6.90
2023-01-27T00:07:58.687Z,8.50
2023-01-27T00:10:26.203Z,8.52
2023-01-27T00:13:11.793Z,8.25
2023-01-27T00:15:39.011Z,7.68
2023-01-27T00:18:06.580Z,7.70
2023-01-27T00:20:52.547Z,8.20
2023-01-27T00:23:41.032Z,9.52
2023-01-27T00:26:13.831Z,7.55
2023-01-27T00:28:43.813Z,7.22
2023-01-27T00:31:32.602Z,8.10
2023-01-27T00:34:02.176Z,9.43
2023-01-27T00:36:30.150Z,9.90
2023-01-27T00:38:57.536Z,8.68
2023-01-27T00:41:24.487Z,9.40
2023-01-27T00:43:53.614Z,8.30
2023-01-27T00:46:23.127Z,9.10
2023-01-27T00:48:51.900Z,8.30
2023-01-27T00:51:19.695Z,9.05
2023-01-27T00:53:47.215Z,10.88
2023-01-27T00:56:14.000Z,7.32
2023-01-27T00:58:42.404Z,9.40
2023-01-27T01:01:12.654Z,11.73
2023-01-27T01:03:39.783Z,8.82
2023-01-27T01:06:09.548Z,9.20
2023-01-27T01:08:37.452Z,11.20
2023-01-27T01:11:06.793Z,9.82
2023-01-27T01:13:33.797Z,8.95
2023-01-27T01:16:27.279Z,10.27
2023-01-27T01:18:54.159Z,9.80
2023-01-27T01:21:21.154Z,12.23
2023-01-27T01:23:47.903Z,10.15
2023-01-27T01:26:16.322Z,9.25
2023-01-27T01:28:44.507Z,11.20
2023-01-27T01:31:15.375Z,10.77
2023-01-27T01:33:42.154Z,11.63
2023-01-27T01:36:13.043Z,9.75
2023-01-27T01:38:40.445Z,9.70
2023-01-27T01:41:10.327Z,8.65
2023-01-27T01:43:37.000Z,7.18
2023-01-27T01:46:04.704Z,7.25
2023-01-27T01:48:44.694Z,8.95
2023-01-27T01:51:23.128Z,6.05
2023-01-27T01:54:00.948Z,9.15
2023-01-27T01:56:34.989Z,7.40
2023-01-27T01:59:06.917Z,8.65
2023-01-27T02:01:33.687Z,7.07
2023-01-27T02:04:04.758Z,9.30
2023-01-27T02:06:45.154Z,9.43
2023-01-27T02:09:12.217Z,9.20
2023-01-27T02:11:38.971Z,9.80
2023-01-27T02:14:10.481Z,6.65
2023-01-27T02:16:38.239Z,9.73
2023-01-27T02:19:06.042Z,12.10
2023-01-27T02:21:35.307Z,8.77
2023-01-27T02:24:12.286Z,9.77
2023-01-27T02:26:45.601Z,9.57
2023-01-27T02:29:15.391Z,10.02
2023-01-27T02:31:43.022Z,7.85
2023-01-27T02:34:17.085Z,8.77
2023-01-27T02:36:50.040Z,8.38
2023-01-27T02:39:20.413Z,9.00
2023-01-27T02:41:51.734Z,10.00
2023-01-27T02:44:19.779Z,7.15
2023-01-27T02:46:46.763Z,12.05
2023-01-27T02:49:14.173Z,9.30
2023-01-27T02:51:40.961Z,10.95
2023-01-27T02:54:08.535Z,10.05
2023-01-27T02:56:35.286Z,9.30
2023-01-27T02:59:02.494Z,11.13
2023-01-27T03:01:48.207Z,7.78
2023-01-27T03:04:15.928Z,8.77
2023-01-27T03:06:42.787Z,7.63
2023-01-27T03:09:09.510Z,10.02
2023-01-27T03:11:56.412Z,10.10
2023-01-27T03:14:42.187Z,9.93
2023-01-27T03:17:27.742Z,8.75
2023-01-27T03:19:56.272Z,8.32
2023-01-27T03:22:23.199Z,12.93
2023-01-27T03:24:49.957Z,9.68
2023-01-27T03:27:18.072Z,9.25
2023-01-27T03:30:06.135Z,7.85
2023-01-27T03:32:33.635Z,9.73
2023-01-27T03:35:38.939Z,8.48
2023-01-27T03:38:31.172Z,9.57
2023-01-27T03:41:16.503Z,9.68
2023-01-27T03:44:01.539Z,10.52
2023-01-27T03:46:29.729Z,9.00
2023-01-27T03:48:56.739Z,8.75
2023-01-27T03:51:25.455Z,9.40
2023-01-27T03:53:53.221Z,9.27
2023-01-27T03:56:21.789Z,10.25
2023-01-27T03:58:49.655Z,9.60
2023-01-27T04:01:19.434Z,10.00
2023-01-27T04:04:05.201Z,8.60
2023-01-27T04:06:53.518Z,8.48
2023-01-27T04:09:36.679Z,10.48
2023-01-27T04:12:06.382Z,11.00
2023-01-27T04:14:35.822Z,11.70
2023-01-27T04:17:05.471Z,11.35
2023-01-27T04:19:33.044Z,13.10
2023-01-27T04:22:01.023Z,11.70
2023-01-27T04:24:27.969Z,10.63
2023-01-27T04:27:00.468Z,12.80
2023-01-27T04:31:58.107Z,12.77
2023-01-27T04:34:26.227Z,13.23
2023-01-27T04:36:53.872Z,9.35
2023-01-27T04:39:20.662Z,10.98
2023-01-27T04:41:49.061Z,11.07
2023-01-27T04:44:16.046Z,10.77
2023-01-27T04:46:42.718Z,12.75
2023-01-27T04:49:09.437Z,11.45
2023-01-27T04:51:36.075Z,12.70
2023-01-27T04:54:03.909Z,12.35
2023-01-27T04:56:44.421Z,11.18
2023-01-27T04:59:12.781Z,13.57
2023-01-27T05:01:39.658Z,10.85
2023-01-27T05:04:06.314Z,14.18
2023-01-27T05:06:32.988Z,12.18
2023-01-27T05:08:59.838Z,9.52
2023-01-27T05:11:26.495Z,10.15
2023-01-27T05:13:53.475Z,11.30
2023-01-27T05:16:21.750Z,12.52
2023-01-27T05:18:50.879Z,11.82
2023-01-27T05:21:30.975Z,13.45
2023-01-27T05:23:58.009Z,11.02
2023-01-27T05:26:27.390Z,11.70
2023-01-27T05:28:56.233Z,11.65
2023-01-27T05:31:26.202Z,11.77
2023-01-27T05:33:54.745Z,13.90
2023-01-27T05:36:24.123Z,11.10
2023-01-27T05:38:51.195Z,13.18
2023-01-27T05:41:19.536Z,11.13
2023-01-27T05:43:51.100Z,9.07
2023-01-27T05:46:20.390Z,12.03
2023-01-27T05:48:49.784Z,10.25
2023-01-27T05:51:18.487Z,11.57
2023-01-27T05:53:45.857Z,16.35
2023-01-27T05:56:14.691Z,12.55
2023-01-27T05:58:41.786Z,12.45
2023-01-27T06:01:09.510Z,12.52
2023-01-27T06:03:36.724Z,12.88
2023-01-27T06:06:04.172Z,11.73
2023-01-27T06:08:31.314Z,12.60
2023-01-27T06:10:58.944Z,10.80
2023-01-27T06:13:26.046Z,12.80
2023-01-27T06:15:53.141Z,10.57
2023-01-27T06:18:19.843Z,13.52
2023-01-27T06:20:46.910Z,13.45
2023-01-27T06:23:15.663Z,12.73
2023-01-27T06:25:45.192Z,14.32
2023-01-27T06:28:23.333Z,11.07
2023-01-27T06:30:55.974Z,13.30
2023-01-27T06:33:22.739Z,13.80
2023-01-27T06:35:49.467Z,13.68
2023-01-27T06:38:16.080Z,13.55
2023-01-27T06:40:43.342Z,15.68
2023-01-27T06:43:12.972Z,12.07
2023-01-27T06:45:40.083Z,16.23
2023-01-27T06:48:08.375Z,15.00
2023-01-27T06:50:36.208Z,11.63
2023-01-27T06:53:05.626Z,14.70
2023-01-27T06:55:33.109Z,13.95
2023-01-27T06:58:01.878Z,13.65
2023-01-27T07:00:29.228Z,12.63
2023-01-27T07:02:56.426Z,14.15
2023-01-27T07:05:23.613Z,12.25
2023-01-27T07:07:50.287Z,14.60
2023-01-27T07:10:17.167Z,15.18
2023-01-27T07:12:43.764Z,13.25
2023-01-27T07:15:11.346Z,13.65
2023-01-27T07:17:38.658Z,10.95
2023-01-27T07:20:08.383Z,9.60
2023-01-27T07:22:35.003Z,10.93
2023-01-27T07:25:02.354Z,12.20
2023-01-27T07:27:29.575Z,13.43
2023-01-27T07:29:56.373Z,11.00
2023-01-27T07:32:23.042Z,11.13
2023-01-27T07:34:49.787Z,13.25
2023-01-27T07:37:17.011Z,10.63
2023-01-27T07:39:43.769Z,10.73
2023-01-27T07:42:10.540Z,11.68
2023-01-27T07:44:37.162Z,10.98
2023-01-27T07:47:03.983Z,10.57
2023-01-27T07:49:30.625Z,10.75
2023-01-27T07:51:57.338Z,10.07
2023-01-27T07:54:25.274Z,12.63
2023-01-27T07:56:52.049Z,12.50
2023-01-27T07:59:18.919Z,10.98
2023-01-27T08:01:47.899Z,13.85
2023-01-27T08:04:14.886Z,9.90
2023-01-27T08:06:41.778Z,10.82
2023-01-27T08:09:08.441Z,9.63
2023-01-27T08:11:35.106Z,12.40
2023-01-27T08:14:01.874Z,13.60
2023-01-27T08:16:29.089Z,14.40
2023-01-27T08:18:56.610Z,13.32
2023-01-27T08:21:23.331Z,13.85
2023-01-27T08:23:49.946Z,12.90
2023-01-27T08:26:16.688Z,12.82
2023-01-27T08:28:43.339Z,11.57
2023-01-27T08:31:09.953Z,9.15
2023-01-27T08:33:37.319Z,10.63
2023-01-27T08:36:07.245Z,12.18
2023-01-27T08:38:34.598Z,11.40
2023-01-27T08:41:16.294Z,11.55
2023-01-27T08:43:43.038Z,12.10
2023-01-27T08:46:10.344Z,11.93
2023-01-27T08:48:37.746Z,9.32
2023-01-27T08:51:06.106Z,12.38
2023-01-27T08:53:34.180Z,11.38
2023-01-27T08:56:05.358Z,12.23
2023-01-27T08:58:33.410Z,12.48
2023-01-27T09:01:05.225Z,12.68
2023-01-27T09:03:32.905Z,13.95
2023-01-27T09:06:00.217Z,10.63
2023-01-27T09:08:27.181Z,14.20
2023-01-27T09:10:56.597Z,12.43
2023-01-27T09:13:23.392Z,14.98
2023-01-27T09:15:53.534Z,13.43
2023-01-27T09:18:21.097Z,14.45
2023-01-27T09:20:47.766Z,14.98
2023-01-27T09:23:14.401Z,15.10
2023-01-27T09:25:41.064Z,15.18
2023-01-27T09:28:16.742Z,14.00
2023-01-27T09:30:47.079Z,16.60
2023-01-27T09:33:17.459Z,15.75
2023-01-27T09:35:53.137Z,13.13
2023-01-27T09:38:22.035Z,15.63
2023-01-27T09:41:19.713Z,16.95
2023-01-27T09:44:01.378Z,15.55
2023-01-27T09:46:48.942Z,10.40
2023-01-27T09:49:33.913Z,11.07
2023-01-27T09:52:14.548Z,12.32
2023-01-27T09:54:52.071Z,13.85
2023-01-27T09:57:32.577Z,12.60
2023-01-27T10:00:08.644Z,10.15
2023-01-27T10:02:51.208Z,8.77
2023-01-27T10:07:47.402Z,8.77
2023-01-27T10:10:31.374Z,11.35
2023-01-27T10:13:17.219Z,9.23
2023-01-27T10:16:13.357Z,10.00
2023-01-27T10:18:52.324Z,10.52
2023-01-27T10:21:29.812Z,10.68
2023-01-27T10:24:15.600Z,10.35
2023-01-27T10:26:49.533Z,11.25
2023-01-27T10:29:24.211Z,11.65
2023-01-27T10:32:28.254Z,10.93
2023-01-27T10:34:54.850Z,11.95
2023-01-27T10:37:40.874Z,10.90
2023-01-27T10:40:39.701Z,11.50
2023-01-27T10:43:41.505Z,11.73
2023-01-27T10:46:33.237Z,12.80
2023-01-27T10:49:24.112Z,10.13
2023-01-27T10:52:07.453Z,10.95
2023-01-27T10:55:00.874Z,13.68
2023-01-27T10:57:39.373Z,13.18
2023-01-27T11:03:23.403Z,13.45
2023-01-27T11:05:59.448Z,10.85
2023-01-27T11:08:31.188Z,11.02
2023-01-27T11:11:20.643Z,14.17
2023-01-27T11:13:47.369Z,11.40
2023-01-27T11:16:18.577Z,12.48
2023-01-27T11:18:49.711Z,16.02
2023-01-27T11:21:22.442Z,16.55
2023-01-27T11:23:55.291Z,13.20
2023-01-27T11:26:37.110Z,12.75
2023-01-27T11:29:33.812Z,11.17
2023-01-27T11:32:18.993Z,10.82
2023-01-27T11:34:51.739Z,14.55
2023-01-27T11:37:22.099Z,10.95
2023-01-27T11:39:48.935Z,12.07
2023-01-27T11:42:17.123Z,11.65
2023-01-27T11:44:45.296Z,11.55
2023-01-27T11:47:43.717Z,10.85
2023-01-27T11:50:18.850Z,11.38
2023-01-27T11:52:49.419Z,13.85
2023-01-27T11:55:27.457Z,13.48
2023-01-27T11:58:02.550Z,11.68
2023-01-27T12:00:38.072Z,11.18
2023-01-27T12:03:18.939Z,12.05
2023-01-27T12:05:51.899Z,11.80
2023-01-27T12:08:49.614Z,11.63
2023-01-27T12:11:16.186Z,12.55
2023-01-27T12:13:49.006Z,10.55
2023-01-27T12:16:16.306Z,12.98
2023-01-27T12:18:58.989Z,11.95
2023-01-27T12:21:41.422Z,9.35
2023-01-27T12:24:21.232Z,15.63
2023-01-27T12:26:47.982Z,12.40
2023-01-27T12:29:20.311Z,10.30
2023-01-27T12:31:50.579Z,11.93
2023-01-27T12:34:43.400Z,12.75
2023-01-27T12:39:53.086Z,10.40
2023-01-27T12:42:42.908Z,12.45
2023-01-27T12:45:27.120Z,13.98
2023-01-27T12:48:13.765Z,11.13
2023-01-27T12:51:01.610Z,10.60
2023-01-27T12:53:28.297Z,12.82
2023-01-27T12:55:57.806Z,12.23
2023-01-27T12:58:40.913Z,12.65
2023-01-27T13:01:37.458Z,12.48
2023-01-27T13:04:15.288Z,13.07
2023-01-27T13:06:49.466Z,11.95
2023-01-27T13:09:34.740Z,13.45
2023-01-27T13:12:09.626Z,13.70
2023-01-27T13:14:41.619Z,13.65
2023-01-27T13:17:27.023Z,11.52
2023-01-27T13:19:57.097Z,13.77
2023-01-27T13:22:26.692Z,15.00
2023-01-27T13:24:59.398Z,13.93
2023-01-27T13:27:26.756Z,12.45
2023-01-27T13:30:03.880Z,12.27
2023-01-27T13:32:36.273Z,12.43
2023-01-27T13:38:02.625Z,14.18
2023-01-27T13:40:31.001Z,11.20
2023-01-27T13:43:09.621Z,12.82
2023-01-27T13:45:57.674Z,12.93
2023-01-27T13:48:35.135Z,14.43
2023-01-27T13:51:04.688Z,15.07
2023-01-27T13:53:31.428Z,16.67
2023-01-27T13:56:19.918Z,14.77
2023-01-27T13:59:24.312Z,14.70
2023-01-27T14:01:51.283Z,16.23
2023-01-27T14:04:21.020Z,16.60
2023-01-27T14:06:50.618Z,13.32
2023-01-27T14:09:40.805Z,14.90
2023-01-27T14:12:32.407Z,13.63
2023-01-27T14:15:18.754Z,14.30
2023-01-27T14:17:59.955Z,16.25
2023-01-27T14:20:42.951Z,12.60
2023-01-27T14:23:22.031Z,13.68
2023-01-27T14:26:11.113Z,15.07
2023-01-27T14:28:52.854Z,14.57
2023-01-27T14:31:39.594Z,13.57
2023-01-27T14:34:28.386Z,17.45
2023-01-27T14:37:03.319Z,16.85
2023-01-27T14:39:46.544Z,15.73
2023-01-27T14:42:51.087Z,17.98
2023-01-27T14:45:23.729Z,15.88
2023-01-27T14:47:56.295Z,15.02
2023-01-27T14:50:34.671Z,17.35
2023-01-27T14:53:24.135Z,17.60
2023-01-27T14:56:11.453Z,16.90
2023-01-27T14:58:50.433Z,15.27
2023-01-27T15:01:28.954Z,15.20
2023-01-27T15:04:26.978Z,16.00
2023-01-27T15:07:04.202Z,17.73
2023-01-27T15:09:44.315Z,16.65
2023-01-27T15:12:26.216Z,16.38
2023-01-27T15:14:59.281Z,18.23
2023-01-27T15:17:29.066Z,17.83
2023-01-27T15:20:33.026Z,16.25
2023-01-27T15:22:59.628Z,18.05
2023-01-27T15:25:38.118Z,19.63
2023-01-27T15:28:05.677Z,22.48
2023-01-27T15:30:34.977Z,15.95
2023-01-27T15:33:01.815Z,22.85
2023-01-27T15:35:37.002Z,19.50
2023-01-27T15:38:08.313Z,19.75
2023-01-27T15:40:56.941Z,18.23
2023-01-27T15:43:25.366Z,16.70
2023-01-27T15:45:56.709Z,20.63
2023-01-27T15:48:28.116Z,19.45
2023-01-27T15:51:04.719Z,17.48
2023-01-27T15:53:34.366Z,16.23
2023-01-27T15:56:02.425Z,19.25
2023-01-27T15:58:39.752Z,18.90
2023-01-27T16:01:22.346Z,16.13
2023-01-27T16:06:24.712Z,17.80
2023-01-27T16:09:06.642Z,20.30
2023-01-27T16:11:36.821Z,19.25
2023-01-27T16:14:12.561Z,20.02
2023-01-27T16:16:40.289Z,20.42
2023-01-27T16:19:11.005Z,17.23
2023-01-27T16:21:53.622Z,21.73
2023-01-27T16:24:30.162Z,16.58
2023-01-27T16:27:07.947Z,17.73
2023-01-27T16:29:46.595Z,22.08
2023-01-27T16:32:21.714Z,19.63
2023-01-27T16:34:59.846Z,17.33
2023-01-27T16:37:29.522Z,16.85
2023-01-27T16:40:19.568Z,17.60
2023-01-27T16:42:57.167Z,21.33
2023-01-27T16:45:28.435Z,19.40
2023-01-27T16:48:01.271Z,20.58
2023-01-27T16:50:36.411Z,19.40
2023-01-27T16:53:05.774Z,17.13
2023-01-27T16:55:32.511Z,17.73
2023-01-27T16:58:00.979Z,23.95
2023-01-27T17:00:32.442Z,19.30
2023-01-27T17:03:02.931Z,21.48
2023-01-27T17:05:29.906Z,15.82
2023-01-27T17:08:26.567Z,17.08
2023-01-27T17:11:18.206Z,16.80
2023-01-27T17:13:52.171Z,15.80
2023-01-27T17:16:34.480Z,18.55
2023-01-27T17:19:24.036Z,18.30
2023-01-27T17:21:55.554Z,16.38
2023-01-27T17:24:55.426Z,16.03
2023-01-27T17:27:25.067Z,16.98
2023-01-27T17:30:00.216Z,15.60
2023-01-27T17:32:32.739Z,15.90
2023-01-27T17:35:01.960Z,17.73
2023-01-27T17:37:31.050Z,17.40
2023-01-27T17:39:59.821Z,17.15
2023-01-27T17:42:31.159Z,16.92
2023-01-27T17:45:20.516Z,14.98
2023-01-27T17:47:47.379Z,16.63
2023-01-27T17:50:19.875Z,15.07
2023-01-27T17:52:52.547Z,14.50
2023-01-27T17:55:33.791Z,18.92
2023-01-27T17:58:05.655Z,16.42
2023-01-27T18:00:37.720Z,15.40
2023-01-27T18:03:13.293Z,17.67
2023-01-27T18:05:44.314Z,13.77
2023-01-27T18:08:11.766Z,13.95
2023-01-27T18:10:42.956Z,16.42
2023-01-27T18:13:15.812Z,16.98
2023-01-27T18:15:47.635Z,16.00
2023-01-27T18:18:28.983Z,18.77
2023-01-27T18:21:16.231Z,15.70
2023-01-27T18:23:51.062Z,16.90
2023-01-27T18:26:33.648Z,17.00
2023-01-27T18:29:33.312Z,13.80
2023-01-27T18:32:09.709Z,16.15
2023-01-27T18:34:46.980Z,14.18
2023-01-27T18:37:35.870Z,16.38
2023-01-27T18:40:24.759Z,15.18
2023-01-27T18:42:53.271Z,15.68
2023-01-27T18:45:19.956Z,13.40
2023-01-27T18:47:46.700Z,13.60
2023-01-27T18:50:20.052Z,13.63
2023-01-27T18:52:47.652Z,16.02
2023-01-27T18:55:26.370Z,14.95
2023-01-27T18:57:55.574Z,17.17
2023-01-27T19:00:30.285Z,13.50
2023-01-27T19:03:01.332Z,16.95
2023-01-27T19:05:33.536Z,15.00
2023-01-27T19:08:00.723Z,13.02
2023-01-27T19:10:33.378Z,13.75
2023-01-27T19:13:01.860Z,14.05
2023-01-27T19:15:32.637Z,11.68
2023-01-27T19:18:01.181Z,13.25
2023-01-27T19:20:30.216Z,14.93
2023-01-27T19:22:58.364Z,14.43
2023-01-27T19:25:29.498Z,13.73
2023-01-27T19:28:01.788Z,15.65
2023-01-27T19:30:32.750Z,14.45
2023-01-27T19:32:59.409Z,12.70
2023-01-27T19:35:29.516Z,16.95
2023-01-27T19:37:56.881Z,16.58
2023-01-27T19:40:26.518Z,15.43
2023-01-27T19:42:53.828Z,14.10
2023-01-27T19:45:21.935Z,17.08
2023-01-27T19:47:49.472Z,15.27
2023-01-27T19:50:17.795Z,13.40
2023-01-27T19:52:44.438Z,13.88
2023-01-27T19:55:11.160Z,13.65
2023-01-27T19:57:37.829Z,13.27
2023-01-27T20:00:06.005Z,11.10
2023-01-27T20:02:39.340Z,16.30
2023-01-27T20:05:06.501Z,15.23
2023-01-27T20:07:33.113Z,13.57
2023-01-27T20:09:59.713Z,13.20
2023-01-27T20:12:26.436Z,14.20
2023-01-27T20:14:53.030Z,14.77
2023-01-27T20:17:19.877Z,13.07
2023-01-27T20:19:47.818Z,13.48
2023-01-27T20:22:14.437Z,15.27
2023-01-27T20:24:41.031Z,17.00
2023-01-27T20:27:07.660Z,18.13
2023-01-27T20:29:35.431Z,15.65
2023-01-27T20:32:02.332Z,18.05
2023-01-27T20:34:28.975Z,15.27
2023-01-27T20:36:55.817Z,17.38
2023-01-27T20:39:22.401Z,16.38
2023-01-27T20:41:50.804Z,14.82
2023-01-27T20:44:18.257Z,17.92
2023-01-27T20:46:44.877Z,13.27
2023-01-27T20:49:11.516Z,17.10
2023-01-27T20:51:38.141Z,17.92
2023-01-27T20:54:05.789Z,14.40
2023-01-27T20:56:32.474Z,17.95
2023-01-27T20:58:59.182Z,14.75
2023-01-27T21:01:26.574Z,17.73
2023-01-27T21:03:53.225Z,14.60
2023-01-27T21:06:20.291Z,14.80
2023-01-27T21:08:47.820Z,15.52
2023-01-27T21:11:16.080Z,18.27
2023-01-27T21:13:42.830Z,16.65
2023-01-27T21:16:09.819Z,16.77
2023-01-27T21:18:37.395Z,16.65
2023-01-27T21:21:05.025Z,17.23
2023-01-27T21:23:33.739Z,20.00
2023-01-27T21:26:05.480Z,16.48
2023-01-27T21:28:33.860Z,15.40
2023-01-27T21:31:16.421Z,18.77
2023-01-27T21:33:45.745Z,17.55
2023-01-27T21:36:13.234Z,15.82
2023-01-27T21:38:40.399Z,19.80
2023-01-27T21:41:13.324Z,16.17
2023-01-27T21:43:58.522Z,17.50
2023-01-27T21:46:25.229Z,14.50
2023-01-27T21:48:52.054Z,15.43
2023-01-27T21:51:18.687Z,13.93
2023-01-27T21:53:45.391Z,15.63
2023-01-27T21:56:12.000Z,13.80
2023-01-27T21:58:39.022Z,14.30
2023-01-27T22:01:09.760Z,15.77
2023-01-27T22:03:37.466Z,14.27
2023-01-27T22:06:05.983Z,14.55
2023-01-27T22:08:33.366Z,18.42
2023-01-27T22:11:10.912Z,17.02
2023-01-27T22:13:38.261Z,16.75
2023-01-27T22:16:05.412Z,17.00
2023-01-27T22:18:32.068Z,16.05
2023-01-27T22:21:02.249Z,17.13
2023-01-27T22:23:29.014Z,14.02
2023-01-27T22:25:55.727Z,15.10
2023-01-27T22:28:26.673Z,16.90
2023-01-27T22:30:53.444Z,16.02
2023-01-27T22:33:20.117Z,14.88
2023-01-27T22:35:46.736Z,14.48
2023-01-27T22:38:13.630Z,15.27
2023-01-27T22:40:40.283Z,16.13
2023-01-27T22:43:10.277Z,13.98
2023-01-27T22:45:40.603Z,15.45
2023-01-27T22:48:08.989Z,16.95
2023-01-27T22:50:36.879Z,14.55
2023-01-27T22:53:05.377Z,13.35
2023-01-27T22:55:32.993Z,16.67
2023-01-27T22:57:59.713Z,14.07
2023-01-27T23:00:26.491Z,17.38
2023-01-27T23:02:53.173Z,19.65
2023-01-27T23:05:19.854Z,18.05
2023-01-27T23:07:47.493Z,15.85
2023-01-27T23:10:14.393Z,15.30
2023-01-27T23:12:41.052Z,16.42
2023-01-27T23:15:08.115Z,15.57
2023-01-27T23:17:34.854Z,16.63
2023-01-27T23:20:01.736Z,16.33
2023-01-27T23:22:28.682Z,15.20
2023-01-27T23:24:55.576Z,16.13
2023-01-27T23:27:22.239Z,17.77
2023-01-27T23:29:48.943Z,19.60
2023-01-27T23:32:15.628Z,17.80
2023-01-27T23:34:42.304Z,16.45
2023-01-27T23:37:09.091Z,16.98
2023-01-27T23:39:35.721Z,15.05
2023-01-27T23:42:02.447Z,18.02
2023-01-27T23:44:29.150Z,15.63
2023-01-27T23:46:56.099Z,16.00
2023-01-27T23:49:22.796Z,15.13
2023-01-27T23:51:49.582Z,13.68
2023-01-27T23:54:16.224Z,14.75
2023-01-27T23:56:42.880Z,15.55
2023-01-27T23:59:11.624Z,13.55
